| time (UTC) | temp F | wind direction | speed knots | gust knots | rain 1hr in | rain 24hr in | rain mn in | humidity % | barometer mb |
| 20260510190051 | 60 | 345 | 0.0 | 3.5 | 0.44 | 0.67 | 0.44 | 90 | 1014.1 |
| 20260510184541 | 67 | 24 | 0.0 | 0.0 | 0.00 | 0.23 | 0.00 | 77 | 1013.4 |
| 20260510183036 | 70 | 24 | 0.0 | 0.9 | 0.00 | 0.23 | 0.00 | 67 | 1013.3 |
| 20260510181532 | 71 | 347 | 0.0 | 0.9 | 0.00 | 0.23 | 0.00 | 67 | 1013.5 |
| 20260510180035 | 70 | 357 | 0.0 | 1.7 | 0.00 | 0.24 | 0.00 | 67 | 1013.5 |
| 20260510174527 | 71 | 7 | 0.0 | 1.7 | 0.00 | 0.24 | 0.00 | 66 | 1013.5 |
| 20260510173024 | 71 | 132 | 0.0 | 1.7 | 0.00 | 0.24 | 0.00 | 66 | 1013.3 |
| 20260510171521 | 71 | 5 | 0.0 | 1.7 | 0.00 | 0.24 | 0.00 | 65 | 1013.7 |
| 20260510170018 | 72 | 281 | 0.0 | 2.6 | 0.00 | 0.25 | 0.00 | 65 | 1013.8 |
| 20260510164516 | 72 | 9 | 0.0 | 4.3 | 0.00 | 0.25 | 0.00 | 67 | 1013.6 |
| 20260510163011 | 71 | 338 | 0.0 | 1.7 | 0.00 | 0.25 | 0.00 | 67 | 1013.5 |
| 20260510161508 | 69 | 149 | 0.0 | 1.7 | 0.00 | 0.25 | 0.00 | 72 | 1013.9 |
| 20260510160007 | 69 | 3 | 0.0 | 2.6 | 0.00 | 0.26 | 0.00 | 73 | 1013.9 |
| 20260510154600 | 69 | 358 | 0.9 | 5.2 | 0.00 | 0.26 | 0.00 | 75 | 1014.0 |
| 20260510153100 | 68 | 153 | 0.0 | 1.7 | 0.00 | 0.26 | 0.00 | 84 | 1013.8 |
| 20260510151552 | 66 | 340 | 0.0 | 2.6 | 0.00 | 0.26 | 0.00 | 93 | 1013.9 |
| 20260510150047 | 64 | 146 | 0.0 | 3.5 | 0.00 | 0.26 | 0.00 | 94 | 1013.7 |
| 20260510144547 | 63 | 149 | 0.9 | 5.2 | 0.00 | 0.26 | 0.00 | 95 | 1013.5 |
| 20260510143050 | 63 | 100 | 0.0 | 3.5 | 0.00 | 0.26 | 0.00 | 96 | 1013.6 |
| 20260510141541 | 61 | 165 | 0.0 | 1.7 | 0.00 | 0.26 | 0.00 | 96 | 1013.6 |
| 20260510140035 | 60 | 135 | 0.0 | 1.7 | 0.00 | 0.27 | 0.00 | 96 | 1013.8 |
| 20260510134535 | 59 | 170 | 0.0 | 2.6 | 0.00 | 0.27 | 0.00 | 96 | 1014.0 |
| 20260510133035 | 57 | 61 | 0.0 | 1.7 | 0.00 | 0.27 | 0.00 | 96 | 1014.0 |
| 20260510131531 | 56 | 146 | 0.0 | 0.9 | 0.00 | 0.27 | 0.00 | 96 | 1014.1 |
| 20260510130027 | 56 | 163 | 0.0 | 0.9 | 0.00 | 0.27 | 0.00 | 96 | 1014.0 |
| 20260510124525 | 53 | 162 | 0.0 | 0.0 | 0.00 | 0.27 | 0.00 | 96 | 1014.0 |
| 20260510123021 | 52 | 162 | 0.0 | 0.0 | 0.00 | 0.27 | 0.00 | 96 | 1013.7 |
| 20260510121518 | 52 | 162 | 0.0 | 0.0 | 0.00 | 0.27 | 0.00 | 96 | 1013.5 |
| 20260510120018 | 52 | 162 | 0.0 | 0.0 | 0.00 | 0.27 | 0.00 | 96 | 1013.5 |
| 20260510114517 | 52 | 162 | 0.0 | 0.0 | 0.00 | 0.27 | 0.00 | 96 | 1013.4 |
| 20260510113014 | 51 | 162 | 0.0 | 0.0 | 0.00 | 0.27 | 0.00 | 96 | 1013.3 |
| 20260510111510 | 50 | 162 | 0.0 | 0.0 | 0.00 | 0.27 | 0.00 | 96 | 1013.2 |
| 20260510110009 | 49 | 162 | 0.0 | 0.0 | 0.00 | 0.27 | 0.00 | 96 | 1013.1 |
| 20260510104506 | 49 | 162 | 0.0 | 0.0 | 0.00 | 0.27 | 0.00 | 96 | 1012.7 |
| 20260510103004 | 49 | 162 | 0.0 | 0.0 | 0.00 | 0.27 | 0.00 | 96 | 1012.9 |
| 20260510101503 | 48 | 162 | 0.0 | 0.0 | 0.00 | 0.27 | 0.00 | 96 | 1012.6 |
| 20260510100003 | 48 | 162 | 0.0 | 0.0 | 0.00 | 0.27 | 0.00 | 96 | 1012.6 |
| 20260510094502 | 48 | 162 | 0.0 | 0.0 | 0.00 | 0.27 | 0.00 | 96 | 1012.4 |
| 20260510093001 | 48 | 162 | 0.0 | 0.0 | 0.00 | 0.27 | 0.00 | 96 | 1012.2 |
| 20260510091559 | 48 | 162 | 0.0 | 0.0 | 0.00 | 0.27 | 0.00 | 96 | 1011.9 |
| 20260510090059 | 48 | 162 | 0.0 | 0.0 | 0.00 | 0.28 | 0.00 | 96 | 1012.1 |
| 20260510084600 | 48 | 162 | 0.0 | 0.0 | 0.00 | 0.28 | 0.00 | 96 | 1012.3 |
| 20260510083056 | 48 | 162 | 0.0 | 0.0 | 0.00 | 0.28 | 0.00 | 96 | 1012.4 |
| 20260510081623 | 48 | 162 | 0.0 | 0.0 | 0.00 | 0.28 | 0.00 | 96 | 1012.6 |
| 20260510080058 | 48 | 162 | 0.0 | 0.0 | 0.00 | 0.28 | 0.00 | 96 | 1012.7 |
| 20260510074554 | 48 | 162 | 0.0 | 0.0 | 0.00 | 0.28 | 0.00 | 96 | 1013.0 |
| 20260510073101 | 48 | 162 | 0.0 | 0.0 | 0.00 | 0.28 | 0.00 | 96 | 1013.1 |
| 20260510071547 | 48 | 162 | 0.0 | 0.0 | 0.00 | 0.28 | 0.00 | 96 | 1013.1 |
| 20260510070045 | 48 | 162 | 0.0 | 0.0 | 0.00 | 0.28 | 0.00 | 96 | 1012.9 |
| 20260510064554 | 47 | 162 | 0.0 | 0.0 | 0.00 | 0.28 | 0.00 | 96 | 1012.5 |
| 20260510063044 | 47 | 162 | 0.0 | 0.0 | 0.00 | 0.28 | 0.00 | 96 | 1012.6 |
| 20260510061545 | 46 | 162 | 0.0 | 0.0 | 0.00 | 0.28 | 0.00 | 96 | 1012.8 |
| 20260510060046 | 45 | 162 | 0.0 | 0.0 | 0.00 | 0.28 | 0.00 | 96 | 1012.7 |
| 20260510054537 | 45 | 162 | 0.0 | 0.0 | 0.00 | 0.28 | 0.00 | 96 | 1012.7 |
| 20260510053042 | 45 | 162 | 0.0 | 0.0 | 0.00 | 0.28 | 0.00 | 96 | 1012.5 |
| 20260510051534 | 45 | 162 | 0.0 | 0.0 | 0.00 | 0.28 | 0.00 | 96 | 1012.3 |
| 20260510050030 | 45 | 162 | 0.0 | 0.0 | 0.00 | 0.28 | 0.00 | 96 | 1012.5 |
| 20260510044543 | 45 | 162 | 0.0 | 0.0 | 0.00 | 0.28 | 0.00 | 96 | 1012.3 |
| 20260510043025 | 45 | 162 | 0.0 | 0.0 | 0.00 | 0.28 | 0.00 | 96 | 1012.4 |
| 20260510041522 | 46 | 162 | 0.0 | 0.0 | 0.00 | 0.28 | 0.00 | 96 | 1012.5 |
| 20260510040034 | 46 | 162 | 0.0 | 0.0 | 0.00 | 0.28 | 0.28 | 96 | 1012.5 |
| 20260510034519 | 47 | 162 | 0.0 | 0.0 | 0.00 | 0.28 | 0.28 | 96 | 1012.2 |
| 20260510033018 | 47 | 162 | 0.0 | 0.0 | 0.00 | 0.28 | 0.28 | 96 | 1012.3 |
| 20260510031517 | 47 | 162 | 0.0 | 0.0 | 0.00 | 0.28 | 0.28 | 96 | 1012.4 |
| 20260510030017 | 47 | 162 | 0.0 | 0.0 | 0.00 | 0.28 | 0.28 | 96 | 1012.6 |
| 20260510024515 | 47 | 162 | 0.0 | 0.0 | 0.00 | 0.28 | 0.28 | 96 | 1012.7 |
| 20260510023012 | 47 | 162 | 0.0 | 0.0 | 0.00 | 0.28 | 0.28 | 96 | 1012.5 |
| 20260510021511 | 47 | 162 | 0.0 | 0.0 | 0.00 | 0.28 | 0.28 | 95 | 1012.5 |
| 20260510020018 | 47 | 162 | 0.0 | 0.0 | 0.00 | 0.28 | 0.28 | 95 | 1012.4 |
| 20260510014509 | 48 | 162 | 0.0 | 0.0 | 0.00 | 0.28 | 0.28 | 96 | 1012.3 |
| 20260510013008 | 48 | 162 | 0.0 | 0.0 | 0.00 | 0.28 | 0.28 | 95 | 1012.2 |
| 20260510011506 | 49 | 162 | 0.0 | 0.0 | 0.00 | 0.28 | 0.28 | 95 | 1012.0 |
| 20260510010004 | 50 | 162 | 0.0 | 0.0 | 0.00 | 0.28 | 0.28 | 95 | 1012.0 |
| 20260510004503 | 50 | 162 | 0.0 | 0.0 | 0.00 | 0.28 | 0.28 | 95 | 1011.9 |
| 20260510003002 | 51 | 162 | 0.0 | 0.0 | 0.00 | 0.28 | 0.28 | 95 | 1011.7 |
| 20260510001600 | 52 | 162 | 0.0 | 1.7 | 0.00 | 0.28 | 0.28 | 95 | 1011.4 |
| 20260509234600 | 52 | 114 | 0.0 | 0.9 | 0.00 | 0.28 | 0.28 | 95 | 1011.1 |
| 20260509233103 | 53 | 135 | 0.0 | 1.7 | 0.00 | 0.28 | 0.28 | 95 | 1011.1 |
| 20260509231556 | 53 | 194 | 0.0 | 2.6 | 0.00 | 0.28 | 0.28 | 95 | 1011.3 |
| 20260509230054 | 53 | 196 | 0.0 | 3.5 | 0.00 | 0.28 | 0.28 | 95 | 1011.1 |
| 20260509224551 | 53 | 174 | 0.0 | 1.7 | 0.01 | 0.28 | 0.28 | 95 | 1011.0 |
| 20260509223057 | 53 | 157 | 0.0 | 1.7 | 0.01 | 0.28 | 0.28 | 95 | 1011.0 |
| 20260509221547 | 54 | 133 | 0.0 | 0.9 | 0.01 | 0.28 | 0.28 | 95 | 1011.2 |
| 20260509220044 | 54 | 155 | 0.0 | 1.7 | 0.03 | 0.28 | 0.28 | 95 | 1011.4 |
| 20260509214542 | 54 | 155 | 0.0 | 1.7 | 0.04 | 0.28 | 0.28 | 95 | 1011.8 |
| 20260509213041 | 53 | 105 | 0.0 | 0.9 | 0.06 | 0.28 | 0.28 | 95 | 1011.8 |
| 20260509211538 | 54 | 158 | 0.0 | 0.9 | 0.07 | 0.28 | 0.28 | 95 | 1011.8 |
| 20260509210038 | 54 | 154 | 0.0 | 0.0 | 0.07 | 0.26 | 0.26 | 95 | 1011.9 |
| 20260509204535 | 54 | 154 | 0.0 | 0.0 | 0.05 | 0.24 | 0.24 | 95 | 1012.0 |
| 20260509203032 | 54 | 154 | 0.0 | 0.0 | 0.04 | 0.22 | 0.22 | 95 | 1012.2 |
| 20260509201531 | 55 | 154 | 0.0 | 0.0 | 0.04 | 0.21 | 0.21 | 95 | 1012.3 |
| 20260509200029 | 54 | 136 | 0.0 | 0.9 | 0.04 | 0.19 | 0.19 | 95 | 1012.6 |
| 20260509194528 | 54 | 278 | 0.0 | 0.0 | 0.04 | 0.18 | 0.18 | 94 | 1012.4 |
| 20260509193033 | 55 | 278 | 0.0 | 0.9 | 0.04 | 0.18 | 0.18 | 94 | 1012.7 |
| 20260509191524 | 55 | 342 | 0.0 | 0.9 | 0.10 | 0.17 | 0.17 | 93 | 1013.1 |